createdAt,value
2023-04-22T00:05:01.940Z,93263.09
2023-04-22T00:07:30.191Z,93269.69
2023-04-22T00:09:58.041Z,93265.31
2023-04-22T00:12:26.038Z,93254.72
2023-04-22T00:14:53.902Z,93268.19
2023-04-22T00:17:21.752Z,93256.09
2023-04-22T00:19:50.150Z,93271.66
2023-04-22T00:22:18.095Z,93268.88
2023-04-22T00:24:46.052Z,93271.63
2023-04-22T00:27:14.010Z,93274.53
2023-04-22T00:29:42.066Z,93271.28
2023-04-22T00:32:10.225Z,93274.63
2023-04-22T00:34:38.242Z,93273.13
2023-04-22T00:37:06.960Z,93265.06
2023-04-22T00:39:35.448Z,93269.56
2023-04-22T00:42:03.646Z,93264.50
2023-04-22T00:44:31.968Z,93270.91
2023-04-22T00:47:00.680Z,93265.19
2023-04-22T00:49:28.852Z,93261.84
2023-04-22T00:51:56.830Z,93262.66
2023-04-22T00:54:24.918Z,93257.34
2023-04-22T00:56:53.348Z,93264.47
2023-04-22T00:59:23.576Z,93273.22
2023-04-22T01:01:52.505Z,93266.28
2023-04-22T01:04:22.006Z,93274.66
2023-04-22T01:06:53.901Z,93245.41
2023-04-22T01:09:22.025Z,93274.59
2023-04-22T01:11:49.987Z,93265.56
2023-04-22T01:14:18.040Z,93268.31
2023-04-22T01:16:46.710Z,93256.34
2023-04-22T01:19:15.382Z,93270.00
2023-04-22T01:21:45.292Z,93268.47
2023-04-22T01:24:13.747Z,93274.19
2023-04-22T01:26:41.652Z,93272.09
2023-04-22T01:29:09.740Z,93274.63
2023-04-22T01:31:39.062Z,93273.34
2023-04-22T01:34:07.604Z,93274.84
2023-04-22T01:36:35.608Z,93277.72
2023-04-22T01:39:03.727Z,93270.38
2023-04-22T01:41:32.705Z,93275.41
2023-04-22T01:44:02.928Z,93273.94
2023-04-22T01:46:31.110Z,93266.09
2023-04-22T01:48:59.127Z,93268.75
2023-04-22T01:51:27.180Z,93264.94
2023-04-22T01:53:57.012Z,93268.84
2023-04-22T01:56:25.108Z,93269.53
2023-04-22T01:58:53.079Z,93275.78
2023-04-22T02:01:20.975Z,93267.50
2023-04-22T02:03:49.317Z,93272.19
2023-04-22T02:06:17.406Z,93274.84
2023-04-22T02:08:45.400Z,93276.31
2023-04-22T02:11:14.193Z,93273.31
2023-04-22T02:13:42.419Z,93275.59
2023-04-22T02:16:11.151Z,93276.78
2023-04-22T02:18:39.251Z,93273.84
2023-04-22T02:21:09.805Z,93276.34
2023-04-22T02:23:39.626Z,93276.56
2023-04-22T02:26:08.646Z,93275.97
2023-04-22T02:28:36.578Z,93271.06
2023-04-22T02:31:06.888Z,93268.66
2023-04-22T02:33:34.942Z,93275.31
2023-04-22T02:36:02.765Z,93278.25
2023-04-22T02:38:30.780Z,93286.38
2023-04-22T02:40:58.817Z,93280.00
2023-04-22T02:43:27.257Z,93280.59
2023-04-22T02:45:55.328Z,93282.13
2023-04-22T02:48:23.631Z,93287.03
2023-04-22T02:50:51.576Z,93289.84
2023-04-22T02:55:28.567Z,93273.09
2023-04-22T02:57:56.760Z,93285.41
2023-04-22T03:00:24.736Z,93274.72
2023-04-22T03:02:52.994Z,93280.28
2023-04-22T03:05:25.312Z,93281.34
2023-04-22T03:07:53.814Z,93271.63
2023-04-22T03:10:22.257Z,93281.38
2023-04-22T03:12:51.645Z,93282.81
2023-04-22T03:15:21.643Z,93289.31
2023-04-22T03:17:50.039Z,93284.25
2023-04-22T03:20:21.022Z,93288.63
2023-04-22T03:22:48.870Z,93295.56
2023-04-22T03:25:17.671Z,93290.41
2023-04-22T03:27:54.714Z,93292.16
2023-04-22T03:30:22.913Z,93290.22
2023-04-22T03:32:51.325Z,93292.56
2023-04-22T03:35:23.106Z,93294.97
2023-04-22T03:37:52.803Z,93298.84
2023-04-22T03:40:27.105Z,93289.72
2023-04-22T03:42:55.805Z,93305.13
2023-04-22T03:45:24.066Z,93306.50
2023-04-22T03:48:12.425Z,93303.03
2023-04-22T03:50:46.118Z,93304.19
2023-04-22T03:53:14.539Z,93306.03
2023-04-22T03:55:42.705Z,93304.69
2023-04-22T03:58:11.641Z,93307.66
2023-04-22T04:00:39.591Z,93305.47
2023-04-22T04:03:12.230Z,93302.59
2023-04-22T04:05:40.842Z,93307.44
2023-04-22T04:08:10.056Z,93301.66
2023-04-22T04:10:38.008Z,93305.25
2023-04-22T04:13:06.535Z,93304.34
2023-04-22T04:15:45.281Z,93310.41
2023-04-22T04:18:14.142Z,93306.41
2023-04-22T04:20:42.740Z,93306.75
2023-04-22T04:23:10.772Z,93311.13
2023-04-22T04:25:38.972Z,93317.47
2023-04-22T04:28:13.104Z,93309.75
2023-04-22T04:30:41.993Z,93306.38
2023-04-22T04:33:10.347Z,93311.69
2023-04-22T04:35:41.812Z,93311.47
2023-04-22T04:38:13.088Z,93317.34
2023-04-22T04:40:40.904Z,93317.78
2023-04-22T04:43:14.639Z,93308.34
2023-04-22T04:45:52.297Z,93326.78
2023-04-22T04:48:27.370Z,93332.19
2023-04-22T04:51:01.883Z,93333.56
2023-04-22T04:53:32.980Z,93335.31
2023-04-22T04:56:01.066Z,93335.41
2023-04-22T04:58:30.638Z,93334.00
2023-04-22T05:01:12.603Z,93338.25
2023-04-22T05:03:42.958Z,93342.13
2023-04-22T05:06:11.034Z,93351.44
2023-04-22T05:08:41.464Z,93340.75
2023-04-22T05:11:10.992Z,93346.28
2023-04-22T05:13:39.016Z,93349.56
2023-04-22T05:16:09.987Z,93340.09
2023-04-22T05:18:40.399Z,93337.72
2023-04-22T05:21:10.537Z,93348.75
2023-04-22T05:23:39.809Z,93348.19
2023-04-22T05:26:08.252Z,93346.88
2023-04-22T05:28:40.018Z,93337.28
2023-04-22T05:31:08.185Z,93344.34
2023-04-22T05:33:36.412Z,93350.28
2023-04-22T05:36:04.753Z,93348.19
2023-04-22T05:38:32.691Z,93349.88
2023-04-22T05:41:01.446Z,93353.22
2023-04-22T05:43:30.227Z,93347.81
2023-04-22T05:46:08.113Z,93351.44
2023-04-22T05:48:39.051Z,93352.13
2023-04-22T05:51:10.549Z,93351.97
2023-04-22T05:53:39.058Z,93349.38
2023-04-22T05:56:07.350Z,93349.63
2023-04-22T05:58:35.417Z,93345.59
2023-04-22T06:01:10.513Z,93343.59
2023-04-22T06:03:52.891Z,93345.88
2023-04-22T06:06:21.400Z,93339.41
2023-04-22T06:08:49.624Z,93353.66
2023-04-22T06:11:18.940Z,93341.41
2023-04-22T06:13:47.449Z,93351.56
2023-04-22T06:16:16.951Z,93342.69
2023-04-22T06:18:44.981Z,93340.09
2023-04-22T06:21:13.541Z,93344.28
2023-04-22T06:23:42.627Z,93343.78
2023-04-22T06:26:10.806Z,93346.34
2023-04-22T06:28:39.164Z,93341.38
2023-04-22T06:31:12.294Z,93347.41
2023-04-22T06:33:40.740Z,93351.63
2023-04-22T06:36:09.628Z,93339.91
2023-04-22T06:38:38.841Z,93345.53
2023-04-22T06:41:34.707Z,93351.59
2023-04-22T06:44:09.927Z,93349.09
2023-04-22T06:46:44.120Z,93338.19
2023-04-22T06:49:24.244Z,93332.31
2023-04-22T06:51:58.332Z,93329.97
2023-04-22T06:54:26.492Z,93331.75
2023-04-22T06:56:55.338Z,93325.44
2023-04-22T06:59:25.122Z,93317.47
2023-04-22T07:01:53.356Z,93307.72
2023-04-22T07:04:22.528Z,93314.78
2023-04-22T07:06:50.700Z,93321.81
2023-04-22T07:09:18.861Z,93317.53
2023-04-22T07:11:46.840Z,93309.69
2023-04-22T07:14:19.105Z,93311.56
2023-04-22T07:16:47.797Z,93302.09
2023-04-22T07:19:15.982Z,93290.03
2023-04-22T07:21:43.989Z,93283.66
2023-04-22T07:24:13.526Z,93305.59
2023-04-22T07:26:43.120Z,93305.06
2023-04-22T07:29:13.472Z,93291.22
2023-04-22T07:31:41.973Z,93307.72
2023-04-22T07:34:11.221Z,93295.03
2023-04-22T07:36:39.413Z,93297.31
2023-04-22T07:39:08.163Z,93297.00
2023-04-22T07:41:36.556Z,93307.31
2023-04-22T07:44:04.682Z,93296.22
2023-04-22T07:46:32.958Z,93303.41
2023-04-22T07:49:01.432Z,93298.19
2023-04-22T07:51:30.037Z,93286.44
2023-04-22T07:53:57.996Z,93283.22
2023-04-22T07:56:27.213Z,93283.97
2023-04-22T07:58:57.618Z,93282.72
2023-04-22T08:01:25.776Z,93275.41
2023-04-22T08:03:54.124Z,93268.50
2023-04-22T08:06:22.365Z,93277.34
2023-04-22T08:08:50.305Z,93277.31
2023-04-22T08:11:18.325Z,93274.06
2023-04-22T08:13:46.424Z,93273.34
2023-04-22T08:16:14.415Z,93274.66
2023-04-22T08:18:42.750Z,93283.44
2023-04-22T08:21:11.280Z,93244.59
2023-04-22T08:23:39.551Z,93270.94
2023-04-22T08:26:08.657Z,93269.50
2023-04-22T08:28:36.566Z,93268.38
2023-04-22T08:31:05.031Z,93268.53
2023-04-22T08:33:33.156Z,93268.50
2023-04-22T08:36:03.756Z,93257.16
2023-04-22T08:38:32.030Z,93253.03
2023-04-22T08:41:00.483Z,93258.03
2023-04-22T08:43:28.705Z,93242.41
2023-04-22T08:45:56.722Z,93256.38
2023-04-22T08:48:26.511Z,93256.91
2023-04-22T08:50:54.986Z,93248.97
2023-04-22T08:53:24.783Z,93256.28
2023-04-22T08:55:56.568Z,93248.50
2023-04-22T08:58:24.747Z,93246.69
2023-04-22T09:00:53.605Z,93239.69
2023-04-22T09:03:23.692Z,93238.16
2023-04-22T09:05:53.481Z,93236.19
2023-04-22T09:08:24.581Z,93233.84
2023-04-22T09:10:52.790Z,93230.53
2023-04-22T09:13:22.047Z,93229.72
2023-04-22T09:15:50.138Z,93222.22
2023-04-22T09:18:21.963Z,93221.38
2023-04-22T09:20:54.796Z,93213.84
2023-04-22T09:23:23.072Z,93222.47
2023-04-22T09:25:51.142Z,93218.59
2023-04-22T09:28:20.006Z,93220.97
2023-04-22T09:30:48.631Z,93213.50
2023-04-22T09:33:17.827Z,93226.28
2023-04-22T09:35:46.160Z,93218.72
2023-04-22T09:38:15.127Z,93211.53
2023-04-22T09:40:44.561Z,93213.75
2023-04-22T09:43:13.287Z,93203.84
2023-04-22T09:45:43.069Z,93206.66
2023-04-22T09:48:18.865Z,93200.97
2023-04-22T09:50:49.599Z,93196.22
2023-04-22T09:53:20.580Z,93195.06
2023-04-22T09:55:54.361Z,93211.47
2023-04-22T09:58:24.282Z,93211.31
2023-04-22T10:00:55.457Z,93220.19
2023-04-22T10:03:24.194Z,93212.09
2023-04-22T10:05:52.730Z,93212.69
2023-04-22T10:08:21.146Z,93215.09
2023-04-22T10:10:49.825Z,93211.03
2023-04-22T10:13:17.861Z,93203.78
2023-04-22T10:15:54.355Z,93211.75
2023-04-22T10:18:28.542Z,93211.03
2023-04-22T10:20:58.647Z,93214.81
2023-04-22T10:23:32.580Z,93220.94
2023-04-22T10:26:01.355Z,93220.09
2023-04-22T10:28:31.057Z,93226.81
2023-04-22T10:31:01.167Z,93225.09
2023-04-22T10:33:31.899Z,93225.38
2023-04-22T10:36:15.242Z,93231.00
2023-04-22T10:38:56.043Z,93225.41
2023-04-22T10:41:25.917Z,93230.28
2023-04-22T10:43:59.060Z,93231.88
2023-04-22T10:46:40.349Z,93237.94
2023-04-22T10:49:21.021Z,93234.34
2023-04-22T10:51:54.563Z,93239.66
2023-04-22T10:54:31.516Z,93240.88
2023-04-22T10:57:11.818Z,93241.25
2023-04-22T10:59:59.325Z,93232.06
2023-04-22T11:02:28.023Z,93239.16
2023-04-22T11:05:19.102Z,93245.16
2023-04-22T11:07:50.045Z,93240.25
2023-04-22T11:10:46.977Z,93230.53
2023-04-22T11:13:22.766Z,93242.16
2023-04-22T11:15:55.396Z,93241.66
2023-04-22T11:18:27.723Z,93234.06
2023-04-22T11:20:57.364Z,93234.56
2023-04-22T11:23:27.620Z,93244.03
2023-04-22T11:26:02.641Z,93238.84
2023-04-22T11:28:31.943Z,93231.84
2023-04-22T11:31:08.524Z,93231.41
2023-04-22T11:33:39.398Z,93230.72
2023-04-22T11:36:12.646Z,93228.75
2023-04-22T11:38:41.489Z,93226.16
2023-04-22T11:41:09.627Z,93229.16
2023-04-22T11:43:48.094Z,93227.25
2023-04-22T11:46:16.682Z,93231.00
2023-04-22T11:48:44.852Z,93230.53
2023-04-22T11:51:13.484Z,93238.34
2023-04-22T11:53:50.683Z,93234.28
2023-04-22T11:56:21.014Z,93228.09
2023-04-22T11:58:49.516Z,93239.25
2023-04-22T12:01:18.383Z,93229.09
2023-04-22T12:03:47.151Z,93238.78
2023-04-22T12:06:17.183Z,93240.34
2023-04-22T12:08:47.731Z,93238.94
2023-04-22T12:11:15.861Z,93235.75
2023-04-22T12:13:48.431Z,93230.69
2023-04-22T12:16:20.380Z,93224.91
2023-04-22T12:18:50.375Z,93227.69
2023-04-22T12:21:22.153Z,93223.50
2023-04-22T12:24:00.320Z,93210.22
2023-04-22T12:26:28.943Z,93216.13
2023-04-22T12:28:58.460Z,93222.72
2023-04-22T12:31:28.364Z,93217.31
2023-04-22T12:33:57.206Z,93212.28
2023-04-22T12:36:26.559Z,93222.41
2023-04-22T12:38:55.014Z,93220.53
2023-04-22T12:41:24.061Z,93216.91
2023-04-22T12:43:53.024Z,93210.00
2023-04-22T12:46:21.764Z,93219.69
2023-04-22T12:48:50.000Z,93219.09
2023-04-22T12:51:18.742Z,93209.09
2023-04-22T12:53:47.063Z,93223.31
2023-04-22T12:56:15.763Z,93224.25
2023-04-22T12:58:43.909Z,93228.97
2023-04-22T13:01:12.209Z,93228.25
2023-04-22T13:03:40.718Z,93208.91
2023-04-22T13:06:09.453Z,93221.00
2023-04-22T13:08:39.995Z,93216.34
2023-04-22T13:11:08.258Z,93211.19
2023-04-22T13:13:37.026Z,93223.78
2023-04-22T13:16:05.831Z,93219.88
2023-04-22T13:18:34.377Z,93219.25
2023-04-22T13:21:02.742Z,93219.75
2023-04-22T13:23:31.397Z,93227.97
2023-04-22T13:26:00.270Z,93219.09
2023-04-22T13:28:28.876Z,93223.38
2023-04-22T13:30:57.168Z,93223.31
2023-04-22T13:33:25.589Z,93233.59
2023-04-22T13:35:54.106Z,93227.81
2023-04-22T13:38:22.701Z,93232.09
2023-04-22T13:40:51.239Z,93241.97
2023-04-22T13:43:19.529Z,93248.84
2023-04-22T13:45:48.928Z,93246.72
2023-04-22T13:48:17.428Z,93241.88
2023-04-22T13:50:45.937Z,93241.53
2023-04-22T13:53:14.635Z,93245.94
2023-04-22T14:01:09.328Z,93251.06
2023-04-22T14:03:37.763Z,93252.47
2023-04-22T14:06:06.271Z,93248.34
2023-04-22T14:08:34.533Z,93245.00
2023-04-22T14:11:03.671Z,93245.06
2023-04-22T14:13:32.059Z,93244.16
2023-04-22T14:16:00.840Z,93248.97
2023-04-22T14:18:29.833Z,93241.84
2023-04-22T14:20:58.313Z,93250.50
2023-04-22T14:23:26.574Z,93240.75
2023-04-22T14:25:55.610Z,93249.03
2023-04-22T14:28:24.122Z,93241.03
2023-04-22T14:30:53.048Z,93228.78
2023-04-22T14:33:24.367Z,93243.16
2023-04-22T14:35:53.734Z,93246.91
2023-04-22T14:38:22.476Z,93248.72
2023-04-22T14:40:51.085Z,93262.16
2023-04-22T14:43:20.505Z,93254.38
2023-04-22T14:45:49.329Z,93257.19
2023-04-22T14:48:17.878Z,93261.78
2023-04-22T14:50:46.676Z,93258.28
2023-04-22T14:53:14.888Z,93258.75
2023-04-22T14:55:43.177Z,93259.06
2023-04-22T14:58:11.648Z,93262.66
2023-04-22T15:00:40.240Z,93257.38
2023-04-22T15:03:08.548Z,93261.28
2023-04-22T15:05:37.077Z,93256.56
2023-04-22T15:08:05.240Z,93256.97
2023-04-22T15:10:34.303Z,93254.19
2023-04-22T15:13:02.754Z,93254.19
2023-04-22T15:15:30.959Z,93252.13
2023-04-22T15:17:59.168Z,93247.84
2023-04-22T15:20:27.261Z,93241.66
2023-04-22T15:22:55.350Z,93243.84
2023-04-22T15:25:24.751Z,93239.69
2023-04-22T15:27:53.552Z,93243.09
2023-04-22T15:30:22.002Z,93257.47
2023-04-22T15:32:50.546Z,93257.19
2023-04-22T15:35:20.591Z,93271.53
2023-04-22T15:37:49.319Z,93276.31
2023-04-22T15:40:17.681Z,93260.06
2023-04-22T15:42:46.167Z,93273.13
2023-04-22T15:45:14.637Z,93277.69
2023-04-22T15:47:43.063Z,93274.81
2023-04-22T15:50:11.552Z,93276.13
2023-04-22T15:52:40.112Z,93287.22
2023-04-22T15:55:08.753Z,93287.88
2023-04-22T15:57:36.807Z,93293.22
2023-04-22T16:00:12.715Z,93280.13
2023-04-22T16:02:45.706Z,93299.19
2023-04-22T16:05:15.134Z,93301.09
2023-04-22T16:07:43.640Z,93302.13
2023-04-22T16:10:12.425Z,93299.53
2023-04-22T16:12:42.135Z,93299.19
2023-04-22T16:15:11.359Z,93307.00
2023-04-22T16:17:39.764Z,93309.97
2023-04-22T16:20:10.063Z,93307.84
2023-04-22T16:22:38.694Z,93302.44
2023-04-22T16:25:07.859Z,93301.69
2023-04-22T16:27:36.445Z,93300.13
2023-04-22T16:30:06.134Z,93309.47
2023-04-22T16:32:34.907Z,93318.59
2023-04-22T16:35:03.322Z,93312.94
2023-04-22T16:37:32.183Z,93322.88
2023-04-22T16:40:03.501Z,93333.06
2023-04-22T16:42:31.815Z,93330.97
2023-04-22T16:45:00.544Z,93334.97
2023-04-22T16:47:28.656Z,93344.34
2023-04-22T16:49:56.817Z,93341.91
2023-04-22T16:52:26.016Z,93304.53
2023-04-22T16:54:54.506Z,93348.34
2023-04-22T16:57:23.287Z,93353.72
2023-04-22T16:59:51.704Z,93353.19
2023-04-22T17:02:19.984Z,93354.47
2023-04-22T17:04:48.301Z,93363.84
2023-04-22T17:07:16.918Z,93363.59
2023-04-22T17:09:45.390Z,93372.66
2023-04-22T17:12:13.996Z,93376.97
2023-04-22T17:14:42.609Z,93381.00
2023-04-22T17:17:11.292Z,93383.41
2023-04-22T17:19:40.169Z,93386.59
2023-04-22T17:22:08.947Z,93387.16
2023-04-22T17:24:37.501Z,93394.63
2023-04-22T17:27:06.052Z,93400.25
2023-04-22T17:29:34.551Z,93403.22
2023-04-22T17:32:03.053Z,93400.53
2023-04-22T17:34:32.096Z,93412.84
2023-04-22T17:37:00.572Z,93419.28
2023-04-22T17:39:29.313Z,93417.66
2023-04-22T17:41:58.904Z,93424.88
2023-04-22T17:44:27.475Z,93433.97
2023-04-22T17:46:56.196Z,93440.66
2023-04-22T17:49:24.493Z,93436.63
2023-04-22T17:51:54.225Z,93441.94
2023-04-22T17:54:23.686Z,93434.69
2023-04-22T17:56:52.060Z,93438.69
2023-04-22T17:59:20.492Z,93419.16
2023-04-22T18:01:49.061Z,93440.03
2023-04-22T18:04:17.564Z,93439.75
2023-04-22T18:06:46.506Z,93450.69
2023-04-22T18:09:14.909Z,93440.00
2023-04-22T18:11:43.556Z,93453.94
2023-04-22T18:14:11.929Z,93456.63
2023-04-22T18:16:40.321Z,93460.38
2023-04-22T18:19:08.792Z,93468.44
2023-04-22T18:21:41.625Z,93464.94
2023-04-22T18:24:15.264Z,93467.88
2023-04-22T18:26:45.783Z,93468.84
2023-04-22T18:29:14.525Z,93482.53
2023-04-22T18:31:43.024Z,93475.31
2023-04-22T18:34:13.861Z,93475.06
2023-04-22T18:36:42.967Z,93480.66
2023-04-22T18:39:11.238Z,93485.44
2023-04-22T18:41:40.435Z,93483.00
2023-04-22T18:44:08.934Z,93484.03
2023-04-22T18:46:37.358Z,93486.94
2023-04-22T18:49:06.190Z,93487.69
2023-04-22T18:51:34.804Z,93489.16
2023-04-22T18:54:03.314Z,93502.25
2023-04-22T18:56:33.309Z,93493.66
2023-04-22T18:59:01.795Z,93483.75
2023-04-22T19:01:30.474Z,93493.97
2023-04-22T19:04:02.152Z,93502.78
2023-04-22T19:06:30.818Z,93499.31
2023-04-22T19:08:59.312Z,93512.66
2023-04-22T19:11:28.392Z,93504.00
2023-04-22T19:13:57.179Z,93503.34
2023-04-22T19:16:26.457Z,93507.91
2023-04-22T19:18:55.487Z,93505.56
2023-04-22T19:21:27.184Z,93504.75
2023-04-22T19:23:55.932Z,93506.38
2023-04-22T19:26:26.708Z,93507.16
2023-04-22T19:28:55.424Z,93518.34
2023-04-22T19:31:24.253Z,93514.00
2023-04-22T19:33:53.193Z,93514.69
2023-04-22T19:36:21.538Z,93512.16
2023-04-22T19:38:50.217Z,93522.38
2023-04-22T19:41:18.752Z,93518.59
2023-04-22T19:43:47.113Z,93514.59
2023-04-22T19:46:15.642Z,93510.06
2023-04-22T19:48:44.369Z,93505.47
2023-04-22T19:51:13.313Z,93518.47
2023-04-22T19:53:42.553Z,93515.19
2023-04-22T19:56:11.583Z,93518.63
2023-04-22T19:58:41.323Z,93514.28
2023-04-22T20:01:10.052Z,93513.91
2023-04-22T20:03:38.597Z,93516.50
2023-04-22T20:06:07.827Z,93511.38
2023-04-22T20:08:36.832Z,93513.53
2023-04-22T20:11:05.588Z,93521.06
2023-04-22T20:13:34.814Z,93516.16
2023-04-22T20:16:04.106Z,93511.19
2023-04-22T20:18:32.812Z,93510.16
2023-04-22T20:21:01.558Z,93504.28
2023-04-22T20:23:32.705Z,93499.97
2023-04-22T20:26:02.595Z,93502.53
2023-04-22T20:28:52.183Z,93503.44
2023-04-22T20:31:23.043Z,93503.88
2023-04-22T20:33:53.091Z,93492.78
2023-04-22T20:36:22.747Z,93514.66
2023-04-22T20:38:55.104Z,93513.25
2023-04-22T20:41:24.991Z,93511.63
2023-04-22T20:43:53.486Z,93508.94
2023-04-22T20:46:23.392Z,93512.72
2023-04-22T20:48:51.945Z,93507.09
2023-04-22T20:51:20.035Z,93510.91
2023-04-22T20:53:48.696Z,93506.06
2023-04-22T20:56:16.905Z,93510.19
2023-04-22T20:58:45.043Z,93507.66
2023-04-22T21:01:16.554Z,93511.84
2023-04-22T21:03:53.289Z,93518.13
2023-04-22T21:06:22.383Z,93527.53
2023-04-22T21:08:51.203Z,93524.31
2023-04-22T21:11:19.821Z,93524.31
2023-04-22T21:13:49.084Z,93519.72
2023-04-22T21:16:19.762Z,93514.34
2023-04-22T21:18:49.372Z,93513.22
2023-04-22T21:21:19.646Z,93511.19
2023-04-22T21:23:48.479Z,93518.38
2023-04-22T21:26:17.938Z,93515.78
2023-04-22T21:28:46.305Z,93505.31
2023-04-22T21:31:14.707Z,93512.16
2023-04-22T21:33:43.149Z,93513.34
2023-04-22T21:36:11.792Z,93513.53
2023-04-22T21:38:40.261Z,93515.34
2023-04-22T21:41:08.324Z,93507.50
2023-04-22T21:43:36.256Z,93506.31
2023-04-22T21:46:04.487Z,93510.03
2023-04-22T21:48:32.533Z,93504.06
2023-04-22T21:51:00.592Z,93508.81
2023-04-22T21:53:28.492Z,93513.09
2023-04-22T21:55:56.498Z,93518.69
2023-04-22T21:58:24.394Z,93513.38
2023-04-22T22:00:52.570Z,93519.84
2023-04-22T22:03:20.662Z,93522.38
2023-04-22T22:05:49.232Z,93522.09
2023-04-22T22:08:17.120Z,93518.56
2023-04-22T22:10:45.255Z,93516.50
2023-04-22T22:13:13.289Z,93524.84
2023-04-22T22:15:41.641Z,93518.25
2023-04-22T22:18:09.557Z,93513.38
2023-04-22T22:20:40.355Z,93523.34
2023-04-22T22:23:08.240Z,93513.84
2023-04-22T22:25:36.602Z,93526.66
2023-04-22T22:28:04.490Z,93525.94
2023-04-22T22:30:32.439Z,93518.13
2023-04-22T22:33:00.923Z,93521.72
2023-04-22T22:35:28.842Z,93525.28
2023-04-22T22:37:56.706Z,93518.09
2023-04-22T22:40:24.723Z,93523.41
2023-04-22T22:42:52.582Z,93530.72
2023-04-22T22:45:20.560Z,93511.81
2023-04-22T22:47:48.470Z,93525.22
2023-04-22T22:50:16.470Z,93501.94
2023-04-22T22:52:44.524Z,93525.78
2023-04-22T22:55:12.489Z,93523.63
2023-04-22T22:57:40.562Z,93524.44
2023-04-22T23:00:11.191Z,93523.63
2023-04-22T23:02:39.590Z,93520.41
2023-04-22T23:05:10.635Z,93519.81
2023-04-22T23:07:38.955Z,93510.13
2023-04-22T23:10:07.723Z,93518.44
2023-04-22T23:12:35.633Z,93529.63
2023-04-22T23:15:04.086Z,93521.69
2023-04-22T23:17:32.161Z,93527.91
2023-04-22T23:20:01.580Z,93521.81
2023-04-22T23:22:31.312Z,93519.50
2023-04-22T23:24:59.652Z,93524.16
2023-04-22T23:27:28.005Z,93518.38
2023-04-22T23:29:57.162Z,93521.75
2023-04-22T23:32:27.160Z,93512.63
2023-04-22T23:34:58.149Z,93517.22
2023-04-22T23:37:49.234Z,93513.41
2023-04-22T23:40:17.376Z,93519.19
2023-04-22T23:42:45.306Z,93518.03
2023-04-22T23:45:13.529Z,93516.06
2023-04-22T23:47:41.540Z,93519.41
2023-04-22T23:50:10.298Z,93524.25
2023-04-22T23:52:41.440Z,93524.84
2023-04-22T23:55:11.573Z,93524.16
2023-04-22T23:57:39.899Z,93516.06
